createdAt,value
2022-12-31T00:00:28.196Z,80.00
2022-12-31T00:05:51.840Z,83.30
2022-12-31T00:10:55.620Z,88.40
2022-12-31T00:15:59.081Z,80.10
2022-12-31T00:21:03.161Z,75.30
2022-12-31T00:26:06.707Z,73.00
2022-12-31T00:31:10.225Z,77.00
2022-12-31T00:36:13.788Z,75.30
2022-12-31T00:41:17.531Z,79.40
2022-12-31T00:46:21.302Z,73.80
2022-12-31T00:56:31.143Z,71.90
2022-12-31T01:01:34.752Z,73.50
2022-12-31T01:06:38.334Z,74.10
2022-12-31T01:11:41.891Z,74.50
2022-12-31T01:16:45.406Z,73.30
2022-12-31T01:21:49.019Z,71.90
2022-12-31T01:26:52.507Z,70.80
2022-12-31T01:31:55.982Z,75.10
2022-12-31T01:36:59.463Z,77.00
2022-12-31T01:42:02.975Z,70.30
2022-12-31T01:47:06.529Z,68.40
2022-12-31T01:52:10.145Z,69.40
2022-12-31T01:57:13.667Z,67.60
2022-12-31T02:02:17.276Z,66.80
2022-12-31T02:07:20.895Z,67.80
2022-12-31T02:12:24.372Z,66.40
2022-12-31T02:17:27.881Z,72.50
2022-12-31T02:22:31.391Z,67.60
2022-12-31T02:27:35.586Z,64.40
2022-12-31T02:32:39.279Z,66.60
2022-12-31T02:37:42.806Z,63.20
2022-12-31T02:42:51.528Z,64.70
2022-12-31T02:47:58.587Z,62.30
2022-12-31T02:53:02.094Z,63.40
2022-12-31T02:58:05.571Z,67.40
2022-12-31T03:03:09.066Z,63.30
2022-12-31T03:08:12.569Z,61.90
2022-12-31T03:13:16.075Z,57.40
2022-12-31T03:18:39.537Z,59.60
2022-12-31T03:23:43.074Z,61.70
2022-12-31T03:28:48.205Z,63.50
2022-12-31T03:33:51.742Z,56.20
2022-12-31T03:38:55.250Z,59.00
2022-12-31T03:43:58.737Z,54.90
2022-12-31T03:49:02.252Z,56.10
2022-12-31T03:54:05.734Z,57.10
2022-12-31T03:59:09.263Z,54.00
2022-12-31T04:04:12.751Z,54.60
2022-12-31T04:09:16.431Z,51.70
2022-12-31T04:14:20.118Z,53.20
2022-12-31T04:19:23.665Z,47.90
2022-12-31T04:24:27.259Z,50.60
2022-12-31T04:29:30.747Z,50.50
2022-12-31T04:34:34.229Z,49.00
2022-12-31T04:39:37.739Z,47.20
2022-12-31T04:44:41.235Z,43.50
2022-12-31T04:49:44.768Z,43.90
2022-12-31T04:54:48.390Z,43.10
2022-12-31T04:59:51.934Z,44.70
2022-12-31T05:04:55.450Z,43.10
2022-12-31T05:09:58.928Z,38.10
2022-12-31T05:15:02.602Z,38.10
2022-12-31T05:20:06.098Z,39.50
2022-12-31T05:25:09.582Z,39.20
2022-12-31T05:30:13.053Z,35.90
2022-12-31T05:35:16.570Z,37.00
2022-12-31T05:40:20.131Z,34.20
2022-12-31T05:45:30.158Z,32.60
2022-12-31T05:50:34.201Z,31.90
2022-12-31T05:55:37.748Z,33.50
2022-12-31T06:00:41.221Z,33.00
2022-12-31T06:05:45.809Z,30.30
2022-12-31T06:10:49.314Z,33.30
2022-12-31T06:15:52.862Z,29.00
2022-12-31T06:20:56.373Z,27.80
2022-12-31T06:25:59.877Z,29.80
2022-12-31T06:31:03.426Z,26.40
2022-12-31T06:36:07.078Z,25.20
2022-12-31T06:41:11.242Z,30.00
2022-12-31T06:46:14.775Z,25.30
2022-12-31T06:51:18.517Z,27.40
2022-12-31T06:56:26.551Z,24.00
2022-12-31T07:01:33.273Z,23.70
2022-12-31T07:06:36.943Z,25.00
2022-12-31T07:11:40.426Z,19.90
2022-12-31T07:16:43.922Z,21.10
2022-12-31T07:21:47.444Z,20.90
2022-12-31T07:26:56.145Z,19.30
2022-12-31T07:32:00.453Z,20.50
2022-12-31T07:37:03.973Z,19.90
2022-12-31T07:42:07.481Z,18.60
2022-12-31T07:47:11.042Z,19.70
2022-12-31T07:52:14.570Z,14.00
2022-12-31T07:57:18.107Z,17.30
2022-12-31T08:02:21.696Z,15.60
2022-12-31T08:07:25.327Z,14.10
2022-12-31T08:12:28.968Z,16.30
2022-12-31T08:17:32.604Z,16.30
2022-12-31T08:22:36.136Z,15.00
2022-12-31T08:27:40.498Z,15.70
2022-12-31T08:32:44.007Z,15.30
2022-12-31T08:37:47.544Z,15.60
2022-12-31T08:42:51.054Z,15.40
2022-12-31T08:47:59.703Z,14.40
2022-12-31T08:53:03.870Z,15.00
2022-12-31T08:58:07.358Z,15.60
2022-12-31T09:03:10.865Z,14.80
2022-12-31T09:08:14.500Z,13.80
2022-12-31T09:13:18.067Z,15.90
2022-12-31T09:18:21.583Z,14.00
2022-12-31T09:23:25.130Z,12.40
2022-12-31T09:28:28.658Z,12.10
2022-12-31T09:33:32.179Z,12.60
2022-12-31T09:38:35.669Z,12.70
2022-12-31T09:43:39.283Z,15.00
2022-12-31T09:48:42.796Z,12.10
2022-12-31T09:53:46.296Z,15.30
2022-12-31T09:58:49.793Z,11.80
2022-12-31T10:03:53.317Z,11.40
2022-12-31T10:08:56.885Z,11.60
2022-12-31T10:14:00.390Z,11.10
2022-12-31T10:19:03.909Z,10.80
2022-12-31T10:24:07.550Z,11.30
2022-12-31T10:29:11.024Z,12.00
2022-12-31T10:34:14.546Z,10.80
2022-12-31T10:39:24.076Z,8.80
2022-12-31T10:44:28.140Z,10.70
2022-12-31T10:49:31.702Z,10.90
2022-12-31T10:54:35.172Z,9.40
2022-12-31T10:59:38.703Z,8.20
2022-12-31T11:04:42.195Z,9.90
2022-12-31T11:09:45.693Z,20.40
2022-12-31T11:14:49.212Z,34.70
2022-12-31T11:19:52.738Z,28.30
2022-12-31T11:24:56.263Z,31.60
2022-12-31T11:29:59.728Z,30.80
2022-12-31T11:35:03.334Z,26.30
2022-12-31T11:40:06.902Z,27.30
2022-12-31T11:45:10.432Z,23.50
2022-12-31T11:50:15.279Z,22.40
2022-12-31T11:55:18.919Z,21.00
2022-12-31T12:00:22.598Z,20.00
2022-12-31T12:05:26.088Z,21.30
2022-12-31T12:10:35.997Z,17.20
2022-12-31T12:15:40.282Z,16.60
2022-12-31T12:20:43.981Z,15.90
2022-12-31T12:25:47.504Z,17.80
2022-12-31T12:30:51.092Z,18.80
2022-12-31T12:35:54.576Z,19.40
2022-12-31T12:40:58.320Z,17.50
2022-12-31T12:46:01.819Z,16.30
2022-12-31T12:51:05.479Z,22.30
2022-12-31T12:56:09.022Z,17.80
2022-12-31T13:01:12.653Z,16.60
2022-12-31T13:11:21.743Z,18.40
2022-12-31T13:16:25.474Z,17.10
2022-12-31T13:26:32.771Z,15.10
2022-12-31T13:31:36.537Z,24.50
2022-12-31T13:41:45.681Z,15.40
2022-12-31T13:46:49.266Z,16.10
2022-12-31T13:51:52.809Z,16.50
2022-12-31T13:56:56.338Z,19.10
2022-12-31T14:01:59.944Z,15.70
2022-12-31T14:07:03.751Z,15.30
2022-12-31T14:12:07.422Z,16.90
2022-12-31T14:17:10.889Z,17.00
2022-12-31T14:22:14.348Z,17.00
2022-12-31T14:27:17.851Z,19.50
2022-12-31T14:32:22.407Z,13.20
2022-12-31T14:37:25.893Z,18.30
2022-12-31T14:42:29.383Z,18.90
2022-12-31T14:47:32.894Z,16.80
2022-12-31T14:52:36.372Z,123.40
2022-12-31T14:58:09.620Z,293.00
2022-12-31T15:03:03.364Z,308.30
2022-12-31T15:08:07.024Z,529.30
2022-12-31T15:13:10.514Z,643.00
2022-12-31T15:18:14.025Z,703.10
2022-12-31T15:23:18.605Z,731.80
2022-12-31T15:28:22.215Z,647.00
2022-12-31T15:33:25.762Z,641.60
2022-12-31T15:38:29.256Z,615.50
2022-12-31T15:43:32.771Z,637.90
2022-12-31T15:48:36.278Z,517.10
2022-12-31T15:53:39.744Z,571.80
2022-12-31T15:58:43.280Z,548.10
2022-12-31T16:03:46.867Z,484.50
2022-12-31T16:08:50.400Z,494.20
2022-12-31T16:13:53.924Z,492.00
2022-12-31T16:18:57.560Z,471.80
2022-12-31T16:24:01.178Z,473.40
2022-12-31T16:29:05.392Z,457.10
2022-12-31T16:34:08.945Z,437.50
2022-12-31T16:39:12.462Z,453.00
2022-12-31T16:44:15.965Z,439.50
2022-12-31T16:49:19.476Z,429.30
2022-12-31T16:54:23.019Z,412.10
2022-12-31T16:59:29.300Z,409.20
2022-12-31T17:04:40.004Z,397.60
2022-12-31T17:09:49.752Z,376.30
2022-12-31T17:14:53.294Z,383.20
2022-12-31T17:19:56.807Z,368.70
2022-12-31T17:25:00.803Z,363.90
2022-12-31T17:30:04.484Z,337.40
2022-12-31T17:35:08.019Z,340.50
2022-12-31T17:40:49.412Z,328.50
2022-12-31T17:45:34.979Z,341.00
2022-12-31T17:50:38.472Z,325.00
2022-12-31T17:55:42.415Z,307.50
2022-12-31T18:00:45.942Z,291.60
2022-12-31T18:05:49.549Z,284.50
2022-12-31T18:10:53.054Z,282.60
2022-12-31T18:15:56.624Z,276.20
2022-12-31T18:26:04.184Z,257.20
2022-12-31T18:31:07.777Z,254.30
2022-12-31T18:36:11.502Z,249.10
2022-12-31T18:41:15.025Z,236.60
2022-12-31T18:46:18.569Z,225.10
2022-12-31T18:51:31.029Z,235.80
2022-12-31T18:56:35.583Z,220.50
2022-12-31T19:01:39.242Z,229.80
2022-12-31T19:11:46.758Z,223.60
2022-12-31T19:16:50.282Z,215.70
2022-12-31T19:21:53.790Z,218.20
2022-12-31T19:26:57.303Z,208.50
2022-12-31T19:32:02.343Z,214.40
2022-12-31T19:37:06.001Z,189.40
2022-12-31T19:42:09.567Z,192.30
2022-12-31T19:47:13.046Z,185.10
2022-12-31T19:52:16.627Z,182.60
2022-12-31T19:57:20.124Z,182.60
2022-12-31T20:02:23.693Z,175.30
2022-12-31T20:12:31.078Z,171.00
2022-12-31T20:17:35.143Z,162.50
2022-12-31T20:22:38.667Z,163.90
2022-12-31T20:27:42.155Z,152.80
2022-12-31T20:32:46.665Z,151.90
2022-12-31T20:37:50.239Z,145.80
2022-12-31T20:42:53.755Z,145.20
2022-12-31T20:47:57.279Z,141.40
2022-12-31T20:53:00.824Z,136.00
2022-12-31T20:58:05.585Z,141.80
2022-12-31T21:03:30.045Z,134.70
2022-12-31T21:08:35.019Z,132.50
2022-12-31T21:13:38.927Z,120.50
2022-12-31T21:18:42.415Z,121.90
2022-12-31T21:23:46.111Z,121.90
2022-12-31T21:28:49.612Z,119.40
2022-12-31T21:33:53.122Z,115.80
2022-12-31T21:44:00.275Z,108.00
2022-12-31T21:54:27.241Z,112.00
2022-12-31T22:00:03.173Z,103.70
2022-12-31T22:05:18.633Z,100.60
2022-12-31T22:10:25.127Z,106.30
2022-12-31T22:20:32.288Z,91.60
2022-12-31T22:25:35.986Z,93.90
2022-12-31T22:30:39.494Z,91.60
2022-12-31T22:35:43.042Z,93.20
2022-12-31T22:40:46.562Z,90.60
2022-12-31T22:45:50.197Z,88.10
2022-12-31T22:55:57.195Z,85.50
2022-12-31T23:01:00.713Z,84.60
2022-12-31T23:11:09.667Z,85.20
2022-12-31T23:16:31.213Z,80.70
2022-12-31T23:21:52.755Z,74.70
2022-12-31T23:26:56.287Z,75.20
2022-12-31T23:37:04.363Z,76.10
2022-12-31T23:42:07.908Z,71.20
2022-12-31T23:47:11.524Z,71.50
2022-12-31T23:52:15.123Z,72.20
2022-12-31T23:57:18.824Z,72.70
